Lewiston Woodville, North Carolina
Current Conditions -  °F | °C
As of 12:55 AM on Tuesday 27 Jan 2015 (Local Time) from KASJ Reporting Station
Overcast Overcast  
Wind Chill: 29°   Ceiling: 800
Heat Index: 35°   Visibility: 10mi
Dew Point: 32°   Wind: 8mph
Humidity: 89%   Direction: 340°NNW
Pressure: 29.67"   Gusts: NA
Location:  36.11°N, 77.18°W
Report Text: KASJ 270555Z AUTO 34007KT 10SM OVC008 02/00 A2967 RMK AO2 T00170000 10080 20016 401110000
Loading
Personal Weather Stations






























Interactive Weather Map New forecast layout! Learn more

10-Day Weather Forecast

Advertisements
Track Severe Weather on mobile